sensor_id;sensor_type;location;lat;lon;timestamp;P1;durP1;ratioP1;P2;durP2;ratioP2
54197;SDS011;40105;52.366;17.000;2023-03-02T00:00:52;174.23;;;59.53;;
54197;SDS011;40105;52.366;17.000;2023-03-02T00:03:17;196.35;;;61.83;;
54197;SDS011;40105;52.366;17.000;2023-03-02T00:05:43;183.67;;;64.37;;
54197;SDS011;40105;52.366;17.000;2023-03-02T00:08:11;172.68;;;60.20;;
54197;SDS011;40105;52.366;17.000;2023-03-02T00:10:36;190.97;;;58.90;;
54197;SDS011;40105;52.366;17.000;2023-03-02T00:13:02;195.48;;;62.35;;
54197;SDS011;40105;52.366;17.000;2023-03-02T00:15:27;157.37;;;55.03;;
54197;SDS011;40105;52.366;17.000;2023-03-02T00:17:52;165.07;;;51.30;;
54197;SDS011;40105;52.366;17.000;2023-03-02T00:20:17;183.50;;;55.87;;
54197;SDS011;40105;52.366;17.000;2023-03-02T00:22:43;192.43;;;58.57;;
54197;SDS011;40105;52.366;17.000;2023-03-02T00:25:09;194.73;;;59.95;;
54197;SDS011;40105;52.366;17.000;2023-03-02T00:27:35;153.20;;;53.05;;
54197;SDS011;40105;52.366;17.000;2023-03-02T00:30:00;172.18;;;54.65;;
54197;SDS011;40105;52.366;17.000;2023-03-02T00:32:25;185.68;;;57.35;;
54197;SDS011;40105;52.366;17.000;2023-03-02T00:34:50;180.67;;;56.93;;
54197;SDS011;40105;52.366;17.000;2023-03-02T00:37:15;175.23;;;56.77;;
54197;SDS011;40105;52.366;17.000;2023-03-02T00:39:41;160.37;;;49.17;;
54197;SDS011;40105;52.366;17.000;2023-03-02T00:42:06;163.77;;;51.77;;
54197;SDS011;40105;52.366;17.000;2023-03-02T00:44:31;158.73;;;50.13;;
54197;SDS011;40105;52.366;17.000;2023-03-02T00:46:56;151.38;;;51.22;;
54197;SDS011;40105;52.366;17.000;2023-03-02T00:49:22;143.27;;;51.57;;
54197;SDS011;40105;52.366;17.000;2023-03-02T00:51:48;151.45;;;50.13;;
54197;SDS011;40105;52.366;17.000;2023-03-02T00:54:13;156.83;;;49.77;;
54197;SDS011;40105;52.366;17.000;2023-03-02T00:56:38;124.47;;;46.60;;
54197;SDS011;40105;52.366;17.000;2023-03-02T00:59:04;162.13;;;51.87;;
54197;SDS011;40105;52.366;17.000;2023-03-02T01:01:30;165.02;;;51.92;;
54197;SDS011;40105;52.366;17.000;2023-03-02T01:03:55;173.57;;;56.93;;
54197;SDS011;40105;52.366;17.000;2023-03-02T01:06:20;135.13;;;48.00;;
54197;SDS011;40105;52.366;17.000;2023-03-02T01:08:46;150.00;;;50.00;;
54197;SDS011;40105;52.366;17.000;2023-03-02T01:11:12;130.75;;;49.92;;
54197;SDS011;40105;52.366;17.000;2023-03-02T01:13:37;138.52;;;49.83;;
54197;SDS011;40105;52.366;17.000;2023-03-02T01:16:02;146.63;;;47.77;;
54197;SDS011;40105;52.366;17.000;2023-03-02T01:18:28;151.02;;;50.65;;
54197;SDS011;40105;52.366;17.000;2023-03-02T01:21:00;165.73;;;51.67;;
54197;SDS011;40105;52.366;17.000;2023-03-02T01:23:26;141.02;;;47.75;;
54197;SDS011;40105;52.366;17.000;2023-03-02T01:25:51;140.30;;;47.37;;
54197;SDS011;40105;52.366;17.000;2023-03-02T01:28:17;150.53;;;46.27;;
54197;SDS011;40105;52.366;17.000;2023-03-02T01:30:42;156.32;;;50.95;;
54197;SDS011;40105;52.366;17.000;2023-03-02T01:33:07;153.13;;;48.93;;
54197;SDS011;40105;52.366;17.000;2023-03-02T01:35:32;146.23;;;47.70;;
54197;SDS011;40105;52.366;17.000;2023-03-02T01:37:57;147.63;;;45.53;;
54197;SDS011;40105;52.366;17.000;2023-03-02T01:40:22;153.90;;;49.00;;
54197;SDS011;40105;52.366;17.000;2023-03-02T01:42:50;148.47;;;47.57;;
54197;SDS011;40105;52.366;17.000;2023-03-02T01:48:00;126.70;;;43.40;;
54197;SDS011;40105;52.366;17.000;2023-03-02T01:50:25;144.80;;;48.70;;
54197;SDS011;40105;52.366;17.000;2023-03-02T01:52:51;133.52;;;46.50;;
54197;SDS011;40105;52.366;17.000;2023-03-02T01:55:18;144.45;;;45.70;;
54197;SDS011;40105;52.366;17.000;2023-03-02T01:57:45;126.25;;;46.00;;
54197;SDS011;40105;52.366;17.000;2023-03-02T02:00:12;155.60;;;46.40;;
54197;SDS011;40105;52.366;17.000;2023-03-02T02:02:38;148.50;;;44.85;;
54197;SDS011;40105;52.366;17.000;2023-03-02T02:05:06;143.23;;;42.15;;
54197;SDS011;40105;52.366;17.000;2023-03-02T02:07:32;139.50;;;44.10;;
54197;SDS011;40105;52.366;17.000;2023-03-02T02:09:57;116.03;;;41.10;;
54197;SDS011;40105;52.366;17.000;2023-03-02T02:12:22;132.60;;;41.38;;
54197;SDS011;40105;52.366;17.000;2023-03-02T02:14:48;139.93;;;44.53;;
54197;SDS011;40105;52.366;17.000;2023-03-02T02:17:14;125.45;;;43.13;;
54197;SDS011;40105;52.366;17.000;2023-03-02T02:22:27;142.65;;;43.78;;
54197;SDS011;40105;52.366;17.000;2023-03-02T02:24:57;150.32;;;41.15;;
54197;SDS011;40105;52.366;17.000;2023-03-02T02:27:25;131.30;;;40.92;;
54197;SDS011;40105;52.366;17.000;2023-03-02T02:29:53;130.60;;;39.80;;
54197;SDS011;40105;52.366;17.000;2023-03-02T02:32:26;121.50;;;39.97;;
54197;SDS011;40105;52.366;17.000;2023-03-02T02:37:39;136.35;;;42.30;;
54197;SDS011;40105;52.366;17.000;2023-03-02T02:40:06;137.63;;;43.17;;
54197;SDS011;40105;52.366;17.000;2023-03-02T02:42:37;145.02;;;39.88;;
54197;SDS011;40105;52.366;17.000;2023-03-02T02:45:04;126.95;;;41.67;;
54197;SDS011;40105;52.366;17.000;2023-03-02T02:47:30;120.47;;;37.35;;
54197;SDS011;40105;52.366;17.000;2023-03-02T02:49:55;123.95;;;39.10;;
54197;SDS011;40105;52.366;17.000;2023-03-02T02:52:21;130.57;;;41.20;;
54197;SDS011;40105;52.366;17.000;2023-03-02T02:54:48;116.07;;;39.92;;
54197;SDS011;40105;52.366;17.000;2023-03-02T02:57:14;108.32;;;38.33;;
54197;SDS011;40105;52.366;17.000;2023-03-02T02:59:45;103.95;;;36.70;;
54197;SDS011;40105;52.366;17.000;2023-03-02T03:02:30;95.72;;;38.28;;
54197;SDS011;40105;52.366;17.000;2023-03-02T03:04:56;135.85;;;37.17;;
54197;SDS011;40105;52.366;17.000;2023-03-02T03:07:26;137.82;;;39.03;;
54197;SDS011;40105;52.366;17.000;2023-03-02T03:09:56;104.53;;;37.47;;
54197;SDS011;40105;52.366;17.000;2023-03-02T03:12:24;116.63;;;37.78;;
54197;SDS011;40105;52.366;17.000;2023-03-02T03:14:50;122.47;;;37.47;;
54197;SDS011;40105;52.366;17.000;2023-03-02T03:17:16;112.00;;;35.50;;
54197;SDS011;40105;52.366;17.000;2023-03-02T03:19:42;109.00;;;38.15;;
54197;SDS011;40105;52.366;17.000;2023-03-02T03:22:09;130.27;;;38.58;;
54197;SDS011;40105;52.366;17.000;2023-03-02T03:24:37;121.57;;;37.10;;
54197;SDS011;40105;52.366;17.000;2023-03-02T03:27:03;111.93;;;37.17;;
54197;SDS011;40105;52.366;17.000;2023-03-02T03:29:32;110.90;;;34.55;;
54197;SDS011;40105;52.366;17.000;2023-03-02T03:31:58;78.20;;;25.38;;
54197;SDS011;40105;52.366;17.000;2023-03-02T03:34:24;78.70;;;25.75;;
54197;SDS011;40105;52.366;17.000;2023-03-02T03:36:50;85.70;;;28.35;;
54197;SDS011;40105;52.366;17.000;2023-03-02T03:39:15;71.32;;;26.33;;
54197;SDS011;40105;52.366;17.000;2023-03-02T03:41:41;73.45;;;24.58;;
54197;SDS011;40105;52.366;17.000;2023-03-02T03:44:06;84.87;;;26.70;;
54197;SDS011;40105;52.366;17.000;2023-03-02T03:46:32;80.57;;;27.13;;
54197;SDS011;40105;52.366;17.000;2023-03-02T03:48:57;75.10;;;26.77;;
54197;SDS011;40105;52.366;17.000;2023-03-02T03:51:22;94.05;;;26.95;;
54197;SDS011;40105;52.366;17.000;2023-03-02T03:53:48;80.32;;;26.48;;
54197;SDS011;40105;52.366;17.000;2023-03-02T03:56:27;88.28;;;29.23;;
54197;SDS011;40105;52.366;17.000;2023-03-02T03:58:53;79.57;;;24.55;;
54197;SDS011;40105;52.366;17.000;2023-03-02T04:01:30;92.70;;;25.00;;
54197;SDS011;40105;52.366;17.000;2023-03-02T04:03:58;106.32;;;29.13;;
54197;SDS011;40105;52.366;17.000;2023-03-02T04:06:24;92.90;;;26.67;;
54197;SDS011;40105;52.366;17.000;2023-03-02T04:08:49;66.90;;;22.90;;
54197;SDS011;40105;52.366;17.000;2023-03-02T04:11:14;70.90;;;23.47;;
54197;SDS011;40105;52.366;17.000;2023-03-02T04:13:39;67.93;;;23.70;;
54197;SDS011;40105;52.366;17.000;2023-03-02T04:16:04;56.63;;;20.10;;
54197;SDS011;40105;52.366;17.000;2023-03-02T04:18:29;95.68;;;26.20;;
54197;SDS011;40105;52.366;17.000;2023-03-02T04:20:55;62.97;;;22.07;;
54197;SDS011;40105;52.366;17.000;2023-03-02T04:23:20;65.87;;;25.07;;
54197;SDS011;40105;52.366;17.000;2023-03-02T04:25:45;56.83;;;20.23;;
54197;SDS011;40105;52.366;17.000;2023-03-02T04:28:10;65.53;;;21.83;;
54197;SDS011;40105;52.366;17.000;2023-03-02T04:30:35;77.57;;;22.90;;
54197;SDS011;40105;52.366;17.000;2023-03-02T04:33:00;91.23;;;25.37;;
54197;SDS011;40105;52.366;17.000;2023-03-02T04:35:26;64.70;;;23.58;;
54197;SDS011;40105;52.366;17.000;2023-03-02T04:37:51;87.20;;;23.30;;
54197;SDS011;40105;52.366;17.000;2023-03-02T04:40:16;65.40;;;22.63;;
54197;SDS011;40105;52.366;17.000;2023-03-02T04:42:42;75.97;;;23.50;;
54197;SDS011;40105;52.366;17.000;2023-03-02T04:45:08;65.97;;;21.75;;
54197;SDS011;40105;52.366;17.000;2023-03-02T04:47:33;59.85;;;22.67;;
54197;SDS011;40105;52.366;17.000;2023-03-02T04:49:59;65.00;;;20.17;;
54197;SDS011;40105;52.366;17.000;2023-03-02T04:52:24;60.83;;;22.97;;
54197;SDS011;40105;52.366;17.000;2023-03-02T04:54:49;66.27;;;23.63;;
54197;SDS011;40105;52.366;17.000;2023-03-02T04:57:14;73.75;;;24.17;;
54197;SDS011;40105;52.366;17.000;2023-03-02T04:59:40;58.23;;;21.47;;
54197;SDS011;40105;52.366;17.000;2023-03-02T05:02:05;72.07;;;22.23;;
54197;SDS011;40105;52.366;17.000;2023-03-02T05:04:31;105.33;;;26.13;;
54197;SDS011;40105;52.366;17.000;2023-03-02T05:06:56;88.80;;;25.70;;
54197;SDS011;40105;52.366;17.000;2023-03-02T05:09:22;58.63;;;19.53;;
54197;SDS011;40105;52.366;17.000;2023-03-02T05:11:51;69.53;;;20.20;;
54197;SDS011;40105;52.366;17.000;2023-03-02T05:14:16;59.53;;;18.60;;
54197;SDS011;40105;52.366;17.000;2023-03-02T05:16:41;59.00;;;18.23;;
54197;SDS011;40105;52.366;17.000;2023-03-02T05:19:07;57.23;;;21.27;;
54197;SDS011;40105;52.366;17.000;2023-03-02T05:21:33;81.45;;;22.00;;
54197;SDS011;40105;52.366;17.000;2023-03-02T05:23:58;81.45;;;21.45;;
54197;SDS011;40105;52.366;17.000;2023-03-02T05:26:24;43.70;;;18.47;;
54197;SDS011;40105;52.366;17.000;2023-03-02T05:28:49;72.63;;;21.00;;
54197;SDS011;40105;52.366;17.000;2023-03-02T05:31:17;51.87;;;17.73;;
54197;SDS011;40105;52.366;17.000;2023-03-02T05:33:43;55.53;;;15.65;;
54197;SDS011;40105;52.366;17.000;2023-03-02T05:36:08;65.40;;;18.40;;
54197;SDS011;40105;52.366;17.000;2023-03-02T05:38:34;60.03;;;18.63;;
54197;SDS011;40105;52.366;17.000;2023-03-02T05:40:59;74.43;;;19.90;;
54197;SDS011;40105;52.366;17.000;2023-03-02T05:43:24;56.73;;;19.10;;
54197;SDS011;40105;52.366;17.000;2023-03-02T05:45:49;54.97;;;17.80;;
54197;SDS011;40105;52.366;17.000;2023-03-02T05:48:14;49.27;;;18.17;;
54197;SDS011;40105;52.366;17.000;2023-03-02T05:50:40;51.67;;;15.83;;
54197;SDS011;40105;52.366;17.000;2023-03-02T05:53:05;73.32;;;22.27;;
54197;SDS011;40105;52.366;17.000;2023-03-02T05:55:30;50.10;;;18.35;;
54197;SDS011;40105;52.366;17.000;2023-03-02T05:58:00;72.45;;;19.48;;
54197;SDS011;40105;52.366;17.000;2023-03-02T06:00:25;56.27;;;17.83;;
54197;SDS011;40105;52.366;17.000;2023-03-02T06:02:51;78.57;;;17.48;;
54197;SDS011;40105;52.366;17.000;2023-03-02T06:05:17;72.07;;;20.80;;
54197;SDS011;40105;52.366;17.000;2023-03-02T06:07:43;56.22;;;18.50;;
54197;SDS011;40105;52.366;17.000;2023-03-02T06:10:09;61.75;;;18.48;;
54197;SDS011;40105;52.366;17.000;2023-03-02T06:12:35;36.95;;;17.85;;
54197;SDS011;40105;52.366;17.000;2023-03-02T06:15:00;49.70;;;17.90;;
54197;SDS011;40105;52.366;17.000;2023-03-02T06:17:25;44.27;;;17.53;;
54197;SDS011;40105;52.366;17.000;2023-03-02T06:19:50;51.63;;;18.65;;
54197;SDS011;40105;52.366;17.000;2023-03-02T06:22:16;49.03;;;17.37;;
54197;SDS011;40105;52.366;17.000;2023-03-02T06:24:41;46.00;;;16.23;;
54197;SDS011;40105;52.366;17.000;2023-03-02T06:27:06;52.37;;;16.70;;
54197;SDS011;40105;52.366;17.000;2023-03-02T06:29:31;51.00;;;15.97;;
54197;SDS011;40105;52.366;17.000;2023-03-02T06:31:57;55.23;;;16.27;;
54197;SDS011;40105;52.366;17.000;2023-03-02T06:34:22;35.83;;;14.80;;
54197;SDS011;40105;52.366;17.000;2023-03-02T06:36:47;42.33;;;13.87;;
54197;SDS011;40105;52.366;17.000;2023-03-02T06:39:12;47.73;;;15.77;;
54197;SDS011;40105;52.366;17.000;2023-03-02T06:41:44;60.97;;;15.40;;
54197;SDS011;40105;52.366;17.000;2023-03-02T06:44:09;42.13;;;16.00;;
54197;SDS011;40105;52.366;17.000;2023-03-02T06:46:35;55.40;;;15.70;;
54197;SDS011;40105;52.366;17.000;2023-03-02T06:49:00;46.67;;;15.63;;
54197;SDS011;40105;52.366;17.000;2023-03-02T06:51:25;59.47;;;16.35;;
54197;SDS011;40105;52.366;17.000;2023-03-02T06:53:50;69.90;;;16.27;;
54197;SDS011;40105;52.366;17.000;2023-03-02T06:56:15;60.87;;;16.70;;
54197;SDS011;40105;52.366;17.000;2023-03-02T06:58:41;43.00;;;14.30;;
54197;SDS011;40105;52.366;17.000;2023-03-02T07:01:06;51.13;;;16.60;;
54197;SDS011;40105;52.366;17.000;2023-03-02T07:03:32;46.78;;;16.15;;
54197;SDS011;40105;52.366;17.000;2023-03-02T07:05:57;61.47;;;18.98;;
54197;SDS011;40105;52.366;17.000;2023-03-02T07:08:22;50.50;;;14.90;;
54197;SDS011;40105;52.366;17.000;2023-03-02T07:10:47;54.35;;;17.17;;
54197;SDS011;40105;52.366;17.000;2023-03-02T07:13:13;69.50;;;22.23;;
54197;SDS011;40105;52.366;17.000;2023-03-02T07:15:38;61.10;;;21.90;;
54197;SDS011;40105;52.366;17.000;2023-03-02T07:18:03;62.90;;;22.20;;
54197;SDS011;40105;52.366;17.000;2023-03-02T07:20:28;64.43;;;17.83;;
54197;SDS011;40105;52.366;17.000;2023-03-02T07:22:54;51.03;;;19.60;;
54197;SDS011;40105;52.366;17.000;2023-03-02T07:25:19;64.53;;;20.10;;
54197;SDS011;40105;52.366;17.000;2023-03-02T07:27:45;62.07;;;20.90;;
54197;SDS011;40105;52.366;17.000;2023-03-02T07:30:10;69.93;;;21.00;;
54197;SDS011;40105;52.366;17.000;2023-03-02T07:32:35;88.30;;;25.80;;
54197;SDS011;40105;52.366;17.000;2023-03-02T07:35:00;86.53;;;21.80;;
54197;SDS011;40105;52.366;17.000;2023-03-02T07:37:26;97.43;;;26.37;;
54197;SDS011;40105;52.366;17.000;2023-03-02T07:39:51;92.30;;;28.23;;
54197;SDS011;40105;52.366;17.000;2023-03-02T07:42:16;70.67;;;19.47;;
54197;SDS011;40105;52.366;17.000;2023-03-02T07:44:42;82.47;;;22.23;;
54197;SDS011;40105;52.366;17.000;2023-03-02T07:47:07;82.35;;;24.55;;
54197;SDS011;40105;52.366;17.000;2023-03-02T07:49:32;71.30;;;22.40;;
54197;SDS011;40105;52.366;17.000;2023-03-02T07:51:59;71.03;;;19.15;;
54197;SDS011;40105;52.366;17.000;2023-03-02T07:54:24;70.93;;;18.88;;
54197;SDS011;40105;52.366;17.000;2023-03-02T07:56:51;61.63;;;16.60;;
54197;SDS011;40105;52.366;17.000;2023-03-02T07:59:16;62.60;;;19.67;;
54197;SDS011;40105;52.366;17.000;2023-03-02T08:01:42;77.18;;;20.77;;
54197;SDS011;40105;52.366;17.000;2023-03-02T08:04:07;49.30;;;17.27;;
54197;SDS011;40105;52.366;17.000;2023-03-02T08:06:32;53.78;;;17.60;;
54197;SDS011;40105;52.366;17.000;2023-03-02T08:08:57;95.80;;;20.90;;
54197;SDS011;40105;52.366;17.000;2023-03-02T08:11:24;62.55;;;17.70;;
54197;SDS011;40105;52.366;17.000;2023-03-02T08:13:49;58.85;;;18.05;;
54197;SDS011;40105;52.366;17.000;2023-03-02T08:16:14;52.03;;;17.40;;
54197;SDS011;40105;52.366;17.000;2023-03-02T08:18:40;67.77;;;20.13;;
54197;SDS011;40105;52.366;17.000;2023-03-02T08:21:19;60.53;;;17.90;;
54197;SDS011;40105;52.366;17.000;2023-03-02T08:23:44;73.20;;;18.38;;
54197;SDS011;40105;52.366;17.000;2023-03-02T08:26:10;73.05;;;17.95;;
54197;SDS011;40105;52.366;17.000;2023-03-02T08:28:36;55.80;;;17.13;;
54197;SDS011;40105;52.366;17.000;2023-03-02T08:31:01;57.47;;;15.73;;
54197;SDS011;40105;52.366;17.000;2023-03-02T08:33:27;61.45;;;18.00;;
54197;SDS011;40105;52.366;17.000;2023-03-02T08:36:03;77.32;;;18.70;;
54197;SDS011;40105;52.366;17.000;2023-03-02T08:38:31;65.00;;;17.33;;
54197;SDS011;40105;52.366;17.000;2023-03-02T08:40:56;71.68;;;16.55;;
54197;SDS011;40105;52.366;17.000;2023-03-02T08:43:22;59.05;;;18.30;;
54197;SDS011;40105;52.366;17.000;2023-03-02T08:45:49;82.72;;;18.15;;
54197;SDS011;40105;52.366;17.000;2023-03-02T08:48:15;74.68;;;18.38;;
54197;SDS011;40105;52.366;17.000;2023-03-02T08:50:40;54.13;;;14.87;;
54197;SDS011;40105;52.366;17.000;2023-03-02T08:53:05;45.10;;;13.27;;
54197;SDS011;40105;52.366;17.000;2023-03-02T08:55:33;55.47;;;14.47;;
54197;SDS011;40105;52.366;17.000;2023-03-02T08:57:58;35.17;;;11.10;;
54197;SDS011;40105;52.366;17.000;2023-03-02T09:00:24;37.88;;;10.10;;
54197;SDS011;40105;52.366;17.000;2023-03-02T09:02:49;41.13;;;11.57;;
54197;SDS011;40105;52.366;17.000;2023-03-02T09:05:14;40.08;;;10.52;;
54197;SDS011;40105;52.366;17.000;2023-03-02T09:07:39;43.10;;;12.73;;
54197;SDS011;40105;52.366;17.000;2023-03-02T09:10:04;45.07;;;12.80;;
54197;SDS011;40105;52.366;17.000;2023-03-02T09:12:30;61.33;;;16.75;;
54197;SDS011;40105;52.366;17.000;2023-03-02T09:14:55;40.80;;;10.45;;
54197;SDS011;40105;52.366;17.000;2023-03-02T09:17:20;52.77;;;13.53;;
54197;SDS011;40105;52.366;17.000;2023-03-02T09:19:45;56.37;;;14.97;;
54197;SDS011;40105;52.366;17.000;2023-03-02T09:22:10;41.00;;;12.60;;
54197;SDS011;40105;52.366;17.000;2023-03-02T09:24:35;42.03;;;12.53;;
54197;SDS011;40105;52.366;17.000;2023-03-02T09:27:01;33.57;;;9.90;;
54197;SDS011;40105;52.366;17.000;2023-03-02T09:29:26;34.25;;;12.07;;
54197;SDS011;40105;52.366;17.000;2023-03-02T09:31:51;45.43;;;13.10;;
54197;SDS011;40105;52.366;17.000;2023-03-02T09:34:16;39.20;;;12.77;;
54197;SDS011;40105;52.366;17.000;2023-03-02T09:36:42;41.00;;;12.57;;
54197;SDS011;40105;52.366;17.000;2023-03-02T09:39:07;54.90;;;15.00;;
54197;SDS011;40105;52.366;17.000;2023-03-02T09:44:15;38.03;;;13.57;;
54197;SDS011;40105;52.366;17.000;2023-03-02T09:46:43;45.60;;;14.60;;
54197;SDS011;40105;52.366;17.000;2023-03-02T09:51:46;32.55;;;11.77;;
54197;SDS011;40105;52.366;17.000;2023-03-02T09:54:14;43.78;;;12.25;;
54197;SDS011;40105;52.366;17.000;2023-03-02T09:56:51;36.53;;;12.48;;
54197;SDS011;40105;52.366;17.000;2023-03-02T10:01:46;43.65;;;13.02;;
54197;SDS011;40105;52.366;17.000;2023-03-02T10:04:14;55.25;;;14.90;;
54197;SDS011;40105;52.366;17.000;2023-03-02T10:06:42;35.58;;;13.93;;
54197;SDS011;40105;52.366;17.000;2023-03-02T10:09:08;37.30;;;12.13;;
54197;SDS011;40105;52.366;17.000;2023-03-02T10:11:40;44.10;;;12.35;;
54197;SDS011;40105;52.366;17.000;2023-03-02T10:14:19;33.25;;;13.13;;
54197;SDS011;40105;52.366;17.000;2023-03-02T10:16:48;37.33;;;12.45;;
54197;SDS011;40105;52.366;17.000;2023-03-02T10:19:19;49.47;;;13.68;;
54197;SDS011;40105;52.366;17.000;2023-03-02T10:21:50;51.42;;;14.30;;
54197;SDS011;40105;52.366;17.000;2023-03-02T10:24:37;43.22;;;14.25;;
54197;SDS011;40105;52.366;17.000;2023-03-02T10:27:16;41.20;;;13.90;;
54197;SDS011;40105;52.366;17.000;2023-03-02T10:30:02;39.15;;;13.93;;
54197;SDS011;40105;52.366;17.000;2023-03-02T10:32:30;52.45;;;14.55;;
54197;SDS011;40105;52.366;17.000;2023-03-02T10:34:56;42.63;;;12.43;;
54197;SDS011;40105;52.366;17.000;2023-03-02T10:37:24;30.33;;;10.80;;
54197;SDS011;40105;52.366;17.000;2023-03-02T10:39:52;44.20;;;14.18;;
54197;SDS011;40105;52.366;17.000;2023-03-02T10:42:31;34.13;;;12.18;;
54197;SDS011;40105;52.366;17.000;2023-03-02T10:45:01;51.60;;;12.75;;
54197;SDS011;40105;52.366;17.000;2023-03-02T10:47:29;37.15;;;12.70;;
54197;SDS011;40105;52.366;17.000;2023-03-02T10:49:55;41.07;;;12.40;;
54197;SDS011;40105;52.366;17.000;2023-03-02T10:52:22;40.38;;;12.85;;
54197;SDS011;40105;52.366;17.000;2023-03-02T10:54:48;33.75;;;13.20;;
54197;SDS011;40105;52.366;17.000;2023-03-02T10:57:27;37.17;;;13.40;;
54197;SDS011;40105;52.366;17.000;2023-03-02T10:59:56;54.13;;;16.85;;
54197;SDS011;40105;52.366;17.000;2023-03-02T11:02:23;48.30;;;13.38;;
54197;SDS011;40105;52.366;17.000;2023-03-02T11:04:52;51.05;;;14.10;;
54197;SDS011;40105;52.366;17.000;2023-03-02T11:07:19;44.83;;;12.35;;
54197;SDS011;40105;52.366;17.000;2023-03-02T11:10:04;38.55;;;13.27;;
54197;SDS011;40105;52.366;17.000;2023-03-02T11:12:30;43.45;;;13.05;;
54197;SDS011;40105;52.366;17.000;2023-03-02T11:15:12;41.47;;;14.52;;
54197;SDS011;40105;52.366;17.000;2023-03-02T11:17:38;35.47;;;13.20;;
54197;SDS011;40105;52.366;17.000;2023-03-02T11:20:04;34.05;;;13.25;;
54197;SDS011;40105;52.366;17.000;2023-03-02T11:22:35;35.53;;;12.18;;
54197;SDS011;40105;52.366;17.000;2023-03-02T11:25:02;37.38;;;12.15;;
54197;SDS011;40105;52.366;17.000;2023-03-02T11:27:30;38.92;;;12.93;;
54197;SDS011;40105;52.366;17.000;2023-03-02T11:35:02;36.80;;;14.63;;
54197;SDS011;40105;52.366;17.000;2023-03-02T11:40:14;44.72;;;14.38;;
54197;SDS011;40105;52.366;17.000;2023-03-02T11:42:41;53.35;;;17.23;;
54197;SDS011;40105;52.366;17.000;2023-03-02T11:50:43;31.75;;;13.77;;
54197;SDS011;40105;52.366;17.000;2023-03-02T11:53:11;34.75;;;12.60;;
54197;SDS011;40105;52.366;17.000;2023-03-02T11:55:39;41.85;;;15.73;;
54197;SDS011;40105;52.366;17.000;2023-03-02T11:58:06;41.25;;;15.77;;
54197;SDS011;40105;52.366;17.000;2023-03-02T12:00:37;50.67;;;19.30;;
54197;SDS011;40105;52.366;17.000;2023-03-02T12:05:31;40.35;;;17.27;;
54197;SDS011;40105;52.366;17.000;2023-03-02T12:08:00;32.60;;;13.95;;
54197;SDS011;40105;52.366;17.000;2023-03-02T12:10:33;35.60;;;15.38;;
54197;SDS011;40105;52.366;17.000;2023-03-02T12:13:17;44.33;;;16.40;;
54197;SDS011;40105;52.366;17.000;2023-03-02T12:15:50;45.13;;;18.73;;
54197;SDS011;40105;52.366;17.000;2023-03-02T12:20:40;37.08;;;16.48;;
54197;SDS011;40105;52.366;17.000;2023-03-02T12:23:19;45.97;;;18.60;;
54197;SDS011;40105;52.366;17.000;2023-03-02T12:25:45;40.08;;;15.35;;
54197;SDS011;40105;52.366;17.000;2023-03-02T12:28:30;32.17;;;14.23;;
54197;SDS011;40105;52.366;17.000;2023-03-02T12:31:00;42.45;;;17.30;;
54197;SDS011;40105;52.366;17.000;2023-03-02T12:33:25;40.42;;;14.25;;
54197;SDS011;40105;52.366;17.000;2023-03-02T12:35:59;34.30;;;12.50;;
54197;SDS011;40105;52.366;17.000;2023-03-02T12:38:27;33.90;;;12.40;;
54197;SDS011;40105;52.366;17.000;2023-03-02T12:40:58;28.42;;;13.18;;
54197;SDS011;40105;52.366;17.000;2023-03-02T12:48:45;32.65;;;14.27;;
54197;SDS011;40105;52.366;17.000;2023-03-02T12:51:15;42.45;;;12.60;;
54197;SDS011;40105;52.366;17.000;2023-03-02T12:53:41;33.08;;;12.88;;
54197;SDS011;40105;52.366;17.000;2023-03-02T12:56:07;34.90;;;14.73;;
54197;SDS011;40105;52.366;17.000;2023-03-02T12:58:32;36.20;;;14.90;;
54197;SDS011;40105;52.366;17.000;2023-03-02T13:00:59;28.83;;;12.27;;
54197;SDS011;40105;52.366;17.000;2023-03-02T13:03:25;37.47;;;14.82;;
54197;SDS011;40105;52.366;17.000;2023-03-02T13:05:51;31.40;;;13.20;;
54197;SDS011;40105;52.366;17.000;2023-03-02T13:08:17;36.53;;;12.90;;
54197;SDS011;40105;52.366;17.000;2023-03-02T13:10:54;32.67;;;11.60;;
54197;SDS011;40105;52.366;17.000;2023-03-02T13:15:46;26.52;;;11.40;;
54197;SDS011;40105;52.366;17.000;2023-03-02T13:18:12;36.00;;;13.73;;
54197;SDS011;40105;52.366;17.000;2023-03-02T13:20:37;32.80;;;12.27;;
54197;SDS011;40105;52.366;17.000;2023-03-02T13:23:02;45.08;;;17.15;;
54197;SDS011;40105;52.366;17.000;2023-03-02T13:25:29;37.93;;;17.47;;
54197;SDS011;40105;52.366;17.000;2023-03-02T13:27:58;30.73;;;11.75;;
54197;SDS011;40105;52.366;17.000;2023-03-02T13:30:34;25.92;;;11.93;;
54197;SDS011;40105;52.366;17.000;2023-03-02T13:33:02;34.90;;;13.60;;
54197;SDS011;40105;52.366;17.000;2023-03-02T13:35:29;36.45;;;13.27;;
54197;SDS011;40105;52.366;17.000;2023-03-02T13:40:40;32.40;;;13.07;;
54197;SDS011;40105;52.366;17.000;2023-03-02T13:48:29;34.30;;;11.48;;
54197;SDS011;40105;52.366;17.000;2023-03-02T13:50:58;31.60;;;12.17;;
54197;SDS011;40105;52.366;17.000;2023-03-02T13:53:24;38.70;;;13.55;;
54197;SDS011;40105;52.366;17.000;2023-03-02T13:55:50;30.13;;;12.38;;
54197;SDS011;40105;52.366;17.000;2023-03-02T13:58:18;35.05;;;12.80;;
54197;SDS011;40105;52.366;17.000;2023-03-02T14:00:43;28.40;;;12.88;;
54197;SDS011;40105;52.366;17.000;2023-03-02T14:03:20;25.38;;;13.02;;
54197;SDS011;40105;52.366;17.000;2023-03-02T14:05:45;33.38;;;14.00;;
54197;SDS011;40105;52.366;17.000;2023-03-02T14:08:10;29.07;;;12.00;;
54197;SDS011;40105;52.366;17.000;2023-03-02T14:10:35;26.52;;;12.38;;
54197;SDS011;40105;52.366;17.000;2023-03-02T14:13:03;37.55;;;12.40;;
54197;SDS011;40105;52.366;17.000;2023-03-02T14:15:30;30.30;;;12.77;;
54197;SDS011;40105;52.366;17.000;2023-03-02T14:17:55;33.13;;;14.67;;
54197;SDS011;40105;52.366;17.000;2023-03-02T14:20:20;37.30;;;16.43;;
54197;SDS011;40105;52.366;17.000;2023-03-02T14:22:46;40.57;;;15.07;;
54197;SDS011;40105;52.366;17.000;2023-03-02T14:25:11;29.90;;;14.55;;
54197;SDS011;40105;52.366;17.000;2023-03-02T14:27:37;37.88;;;15.70;;
54197;SDS011;40105;52.366;17.000;2023-03-02T14:30:13;33.50;;;14.52;;
54197;SDS011;40105;52.366;17.000;2023-03-02T14:32:39;39.72;;;13.63;;
54197;SDS011;40105;52.366;17.000;2023-03-02T14:35:04;43.93;;;13.33;;
54197;SDS011;40105;52.366;17.000;2023-03-02T14:37:29;34.00;;;14.63;;
54197;SDS011;40105;52.366;17.000;2023-03-02T14:39:55;44.63;;;15.63;;
54197;SDS011;40105;52.366;17.000;2023-03-02T14:42:20;39.65;;;14.75;;
54197;SDS011;40105;52.366;17.000;2023-03-02T14:44:47;31.50;;;14.05;;
54197;SDS011;40105;52.366;17.000;2023-03-02T14:47:12;30.13;;;13.48;;
54197;SDS011;40105;52.366;17.000;2023-03-02T14:49:38;29.27;;;13.13;;
54197;SDS011;40105;52.366;17.000;2023-03-02T14:52:07;34.60;;;13.02;;
54197;SDS011;40105;52.366;17.000;2023-03-02T14:54:43;35.28;;;12.45;;